Rose Hill, Alabama
Current Conditions -  °F | °C
As of 7:53 AM on Saturday 22 Nov 2014 (Local Time) from KBHM Reporting Station
Clear Clear  
Wind Chill: 45°   Ceiling: Unl
Heat Index: 49°   Visibility: 10mi
Dew Point: 33°   Wind: 9mph
Humidity: 54%   Direction: 100°E
Pressure: 30.39"   Gusts: NA
Location:  33.5393°N, 86.6626°W
Report Text: KBHM 221353Z 10008KT 10SM CLR 09/01 A3039 RMK AO2 SLP290 T00940006
Loading
Personal Weather Stations






























Interactive Weather Map New forecast layout! Learn more

10-Day Weather Forecast

Advertisements
Track Severe Weather on mobile